createdAt,value
2022-11-08T00:00:05.618Z,40.47
2022-11-08T00:02:33.732Z,46.93
2022-11-08T00:05:18.935Z,46.67
2022-11-08T00:11:56.242Z,49.20
2022-11-08T00:14:24.140Z,43.80
2022-11-08T00:16:52.024Z,50.47
2022-11-08T00:19:19.918Z,47.20
2022-11-08T00:21:47.793Z,44.90
2022-11-08T00:24:15.616Z,43.00
2022-11-08T00:26:44.844Z,42.53
2022-11-08T00:29:12.733Z,42.63
2022-11-08T00:31:40.623Z,44.33
2022-11-08T00:34:08.494Z,43.37
2022-11-08T00:36:36.608Z,44.10
2022-11-08T00:39:04.638Z,44.57
2022-11-08T00:41:32.474Z,44.10
2022-11-08T00:44:01.705Z,44.87
2022-11-08T00:46:29.553Z,44.20
2022-11-08T00:48:57.403Z,43.67
2022-11-08T00:51:25.311Z,48.10
2022-11-08T00:53:53.152Z,44.70
2022-11-08T00:56:21.003Z,44.67
2022-11-08T00:58:48.911Z,45.40
2022-11-08T01:01:20.570Z,43.03
2022-11-08T01:03:49.919Z,46.80
2022-11-08T01:06:19.726Z,44.87
2022-11-08T01:08:47.984Z,44.60
2022-11-08T01:11:18.477Z,47.30
2022-11-08T01:13:46.597Z,43.20
2022-11-08T01:16:16.641Z,44.93
2022-11-08T01:18:46.971Z,49.60
2022-11-08T01:21:15.563Z,52.40
2022-11-08T01:23:45.368Z,46.77
2022-11-08T01:26:15.616Z,45.80
2022-11-08T01:28:43.814Z,50.70
2022-11-08T01:31:13.610Z,48.27
2022-11-08T01:33:42.951Z,48.40
2022-11-08T01:36:17.119Z,48.60
2022-11-08T01:38:45.240Z,48.43
2022-11-08T01:41:14.770Z,42.00
2022-11-08T01:43:45.621Z,46.47
2022-11-08T01:46:38.862Z,43.10
2022-11-08T01:49:44.348Z,42.63
2022-11-08T01:52:20.803Z,40.73
2022-11-08T01:54:57.086Z,40.87
2022-11-08T01:57:32.097Z,44.87
2022-11-08T02:00:05.377Z,44.17
2022-11-08T02:02:34.747Z,44.53
2022-11-08T02:05:04.041Z,42.47
2022-11-08T02:07:34.867Z,44.37
2022-11-08T02:10:03.991Z,41.97
2022-11-08T02:12:31.879Z,43.50
2022-11-08T02:15:00.480Z,42.03
2022-11-08T02:17:28.342Z,40.50
2022-11-08T02:19:56.182Z,40.00
2022-11-08T02:22:33.651Z,38.83
2022-11-08T02:25:03.757Z,42.50
2022-11-08T02:27:31.663Z,39.80
2022-11-08T02:29:59.546Z,37.67
2022-11-08T02:32:27.396Z,39.60
2022-11-08T02:34:58.557Z,42.10
2022-11-08T02:37:28.253Z,40.43
2022-11-08T02:39:56.090Z,39.30
2022-11-08T02:42:25.428Z,40.53
2022-11-08T02:44:53.314Z,41.13
2022-11-08T02:47:21.204Z,41.47
2022-11-08T02:49:49.054Z,43.87
2022-11-08T02:52:17.201Z,42.30
2022-11-08T02:54:45.054Z,39.80
2022-11-08T02:57:12.964Z,40.63
2022-11-08T02:59:42.175Z,44.30
2022-11-08T03:02:10.201Z,40.07
2022-11-08T03:04:38.136Z,41.03
2022-11-08T03:07:05.983Z,39.70
2022-11-08T03:09:33.843Z,42.10
2022-11-08T03:12:01.769Z,40.13
2022-11-08T03:14:29.612Z,44.20
2022-11-08T03:16:58.901Z,39.90
2022-11-08T03:19:26.779Z,43.67
2022-11-08T03:21:54.622Z,39.27
2022-11-08T03:24:22.483Z,43.70
2022-11-08T03:26:50.354Z,39.60
2022-11-08T03:29:18.200Z,40.00
2022-11-08T03:31:46.027Z,42.23
2022-11-08T03:34:15.374Z,41.47
2022-11-08T03:36:43.235Z,40.93
2022-11-08T03:39:11.568Z,41.20
2022-11-08T03:41:39.839Z,44.70
2022-11-08T03:44:07.750Z,45.20
2022-11-08T03:46:35.608Z,5.93
2022-11-08T03:49:03.443Z,8.63
2022-11-08T03:51:32.684Z,5.17
2022-11-08T03:54:00.539Z,9.83
2022-11-08T03:56:28.403Z,6.87
2022-11-08T03:58:56.243Z,3.90
2022-11-08T04:01:24.314Z,6.77
2022-11-08T04:03:52.288Z,7.90
2022-11-08T04:06:20.173Z,10.80
2022-11-08T04:08:49.419Z,6.77
2022-11-08T04:11:34.786Z,7.47
2022-11-08T04:14:20.066Z,5.13
2022-11-08T04:16:47.991Z,4.83
2022-11-08T04:19:33.171Z,9.63
2022-11-08T04:22:01.049Z,8.77
2022-11-08T04:24:30.275Z,6.03
2022-11-08T04:26:58.164Z,8.63
2022-11-08T04:29:26.063Z,8.20
2022-11-08T04:31:53.903Z,6.03
2022-11-08T04:34:21.916Z,7.07
2022-11-08T04:36:50.553Z,9.27
2022-11-08T04:39:19.088Z,9.07
2022-11-08T04:41:48.541Z,9.10
2022-11-08T04:44:18.403Z,11.97
2022-11-08T04:46:46.300Z,7.20
2022-11-08T04:49:14.135Z,8.73
2022-11-08T04:51:41.990Z,8.07
2022-11-08T04:54:11.843Z,7.70
2022-11-08T04:56:41.672Z,8.30
2022-11-08T04:59:12.207Z,10.73
2022-11-08T05:01:40.814Z,7.03
2022-11-08T05:04:08.847Z,9.23
2022-11-08T05:06:36.688Z,9.17
2022-11-08T05:09:04.730Z,10.53
2022-11-08T05:11:32.608Z,12.33
2022-11-08T05:14:00.438Z,7.87
2022-11-08T05:16:31.914Z,11.43
2022-11-08T05:19:00.482Z,5.83
2022-11-08T05:21:45.791Z,11.03
2022-11-08T05:24:16.291Z,7.50
2022-11-08T05:26:45.937Z,6.77
2022-11-08T05:29:15.412Z,7.93
2022-11-08T05:31:44.707Z,5.57
2022-11-08T05:34:12.647Z,11.23
2022-11-08T05:36:40.487Z,10.23
2022-11-08T05:39:08.327Z,8.00
2022-11-08T05:41:36.249Z,8.23
2022-11-08T05:44:04.116Z,8.13
2022-11-08T05:46:32.031Z,5.70
2022-11-08T05:49:01.530Z,9.83
2022-11-08T05:51:29.633Z,7.43
2022-11-08T05:53:57.488Z,7.10
2022-11-08T05:56:25.359Z,10.87
2022-11-08T05:58:53.209Z,8.77
2022-11-08T06:01:21.823Z,8.87
2022-11-08T06:03:49.801Z,8.63
2022-11-08T06:06:20.725Z,9.60
2022-11-08T06:08:50.588Z,8.33
2022-11-08T06:11:21.704Z,7.07
2022-11-08T06:13:49.660Z,8.43
2022-11-08T06:16:19.248Z,11.73
2022-11-08T06:18:47.206Z,7.87
2022-11-08T06:21:16.503Z,8.63
2022-11-08T06:23:46.135Z,7.87
2022-11-08T06:26:14.593Z,8.63
2022-11-08T06:28:42.686Z,9.93
2022-11-08T06:31:10.639Z,11.67
2022-11-08T06:33:38.526Z,5.43
2022-11-08T06:36:08.411Z,5.67
2022-11-08T06:38:36.563Z,6.83
2022-11-08T06:41:05.890Z,6.80
2022-11-08T06:43:34.148Z,9.00
2022-11-08T06:46:02.661Z,10.13
2022-11-08T06:48:35.336Z,5.83
2022-11-08T06:51:04.086Z,9.40
2022-11-08T06:53:32.147Z,6.30
2022-11-08T06:56:00.272Z,7.40
2022-11-08T06:58:29.591Z,8.73
2022-11-08T07:00:57.592Z,5.33
2022-11-08T07:03:25.555Z,4.73
2022-11-08T07:05:53.400Z,6.33
2022-11-08T07:08:24.077Z,5.87
2022-11-08T07:10:52.899Z,7.07
2022-11-08T07:13:21.439Z,7.47
2022-11-08T07:15:51.133Z,7.53
2022-11-08T07:18:20.627Z,4.13
2022-11-08T07:20:48.565Z,5.87
2022-11-08T07:23:16.784Z,6.30
2022-11-08T07:25:44.785Z,9.73
2022-11-08T07:28:17.040Z,8.17
2022-11-08T07:30:45.574Z,5.97
2022-11-08T07:33:16.732Z,9.47
2022-11-08T07:35:46.468Z,10.03
2022-11-08T07:38:14.594Z,8.07
2022-11-08T07:40:42.547Z,9.80
2022-11-08T07:43:12.261Z,10.67
2022-11-08T07:45:41.556Z,7.60
2022-11-08T07:48:12.824Z,9.07
2022-11-08T07:50:43.217Z,11.70
2022-11-08T07:53:11.933Z,6.87
2022-11-08T07:55:40.299Z,7.93
2022-11-08T07:58:09.319Z,10.43
2022-11-08T08:00:38.682Z,8.77
2022-11-08T08:03:09.578Z,7.83
2022-11-08T08:05:39.096Z,10.73
2022-11-08T08:08:08.935Z,10.07
2022-11-08T08:10:37.284Z,7.83
2022-11-08T08:13:06.209Z,5.43
2022-11-08T08:15:34.131Z,6.53
2022-11-08T08:18:03.231Z,7.27
2022-11-08T08:20:31.592Z,5.73
2022-11-08T08:23:00.525Z,8.70
2022-11-08T08:25:31.533Z,7.60
2022-11-08T08:28:01.825Z,8.47
2022-11-08T08:30:31.560Z,8.93
2022-11-08T08:33:34.293Z,7.23
2022-11-08T08:35:53.644Z,11.30
2022-11-08T08:38:21.759Z,6.60
2022-11-08T08:40:51.596Z,6.63
2022-11-08T08:43:20.306Z,6.20
2022-11-08T08:45:49.000Z,9.57
2022-11-08T08:48:16.953Z,6.27
2022-11-08T08:50:44.810Z,6.23
2022-11-08T08:53:12.666Z,6.57
2022-11-08T08:55:41.796Z,10.87
2022-11-08T08:58:12.085Z,7.57
2022-11-08T09:03:28.011Z,5.90
2022-11-08T09:05:58.274Z,8.23
2022-11-08T09:08:26.154Z,9.53
2022-11-08T09:10:55.452Z,6.40
2022-11-08T09:13:26.233Z,4.13
2022-11-08T09:15:54.451Z,7.43
2022-11-08T09:18:22.551Z,7.37
2022-11-08T09:20:50.567Z,8.40
2022-11-08T09:23:19.079Z,6.27
2022-11-08T09:25:47.114Z,9.90
2022-11-08T09:28:14.969Z,7.93
2022-11-08T09:30:44.230Z,5.10
2022-11-08T09:33:12.147Z,6.20
2022-11-08T09:35:40.028Z,8.87
2022-11-08T09:38:08.545Z,5.70
2022-11-08T09:40:41.189Z,6.57
2022-11-08T09:43:28.460Z,4.70
2022-11-08T09:45:58.030Z,6.80
2022-11-08T09:48:30.895Z,4.87
2022-11-08T09:51:05.116Z,7.70
2022-11-08T09:53:39.898Z,4.87
2022-11-08T09:56:14.890Z,5.90
2022-11-08T09:58:48.690Z,4.60
2022-11-08T10:01:18.529Z,5.77
2022-11-08T10:03:50.590Z,7.27
2022-11-08T10:06:31.342Z,4.93
2022-11-08T10:09:07.276Z,4.73
2022-11-08T10:11:47.226Z,6.30
2022-11-08T10:14:46.742Z,5.70
2022-11-08T10:17:35.495Z,5.03
2022-11-08T10:20:11.364Z,5.70
2022-11-08T10:22:50.831Z,5.43
2022-11-08T10:25:21.891Z,5.13
2022-11-08T10:27:52.445Z,6.67
2022-11-08T10:30:22.955Z,4.50
2022-11-08T10:32:55.340Z,6.33
2022-11-08T10:35:28.926Z,7.63
2022-11-08T10:38:00.192Z,6.70
2022-11-08T10:40:38.942Z,5.68
2022-11-08T10:43:11.846Z,6.88
2022-11-08T10:45:39.734Z,5.43
2022-11-08T10:48:12.187Z,10.50
2022-11-08T10:50:45.365Z,27.50
2022-11-08T10:53:20.626Z,25.45
2022-11-08T10:55:51.826Z,26.23
2022-11-08T10:58:37.367Z,28.02
2022-11-08T11:01:08.735Z,28.55
2022-11-08T11:03:37.947Z,28.63
2022-11-08T11:06:07.702Z,25.88
2022-11-08T11:08:35.728Z,42.78
2022-11-08T11:11:25.424Z,29.38
2022-11-08T11:14:16.419Z,24.52
2022-11-08T11:16:56.407Z,23.58
2022-11-08T11:19:27.254Z,22.58
2022-11-08T11:21:58.633Z,22.02
2022-11-08T11:24:26.781Z,21.85
2022-11-08T11:27:07.117Z,20.20
2022-11-08T11:29:36.671Z,21.25
2022-11-08T11:32:25.924Z,21.25
2022-11-08T11:34:57.449Z,21.67
2022-11-08T11:37:40.507Z,21.70
2022-11-08T11:40:18.542Z,21.40
2022-11-08T11:42:57.885Z,21.13
2022-11-08T11:45:32.004Z,23.00
2022-11-08T11:48:03.659Z,19.48
2022-11-08T11:50:36.237Z,18.65
2022-11-08T11:53:07.392Z,22.90
2022-11-08T11:55:48.908Z,23.67
2022-11-08T11:58:33.232Z,19.83
2022-11-08T12:01:14.043Z,23.77
2022-11-08T12:04:01.766Z,21.75
2022-11-08T12:06:44.042Z,26.70
2022-11-08T12:09:22.115Z,22.73
2022-11-08T12:12:04.830Z,21.43
2022-11-08T12:14:48.670Z,20.53
2022-11-08T12:17:47.081Z,19.60
2022-11-08T12:20:27.766Z,22.77
2022-11-08T12:23:12.454Z,23.33
2022-11-08T12:25:50.136Z,22.33
2022-11-08T12:28:42.089Z,20.63
2022-11-08T12:31:22.544Z,19.23
2022-11-08T12:34:00.833Z,19.80
2022-11-08T12:36:36.701Z,18.53
2022-11-08T12:39:22.142Z,17.30
2022-11-08T12:41:59.590Z,17.73
2022-11-08T12:45:00.126Z,16.57
2022-11-08T12:47:36.799Z,19.53
2022-11-08T12:50:18.936Z,17.87
2022-11-08T12:53:05.691Z,15.77
2022-11-08T12:55:37.606Z,15.80
2022-11-08T12:58:31.597Z,17.70
2022-11-08T13:01:06.692Z,18.53
2022-11-08T13:04:04.708Z,17.30
2022-11-08T13:06:42.053Z,22.20
2022-11-08T13:09:21.470Z,17.57
2022-11-08T13:12:01.298Z,16.40
2022-11-08T13:14:29.928Z,17.70
2022-11-08T13:17:23.052Z,17.33
2022-11-08T13:20:04.689Z,16.70
2022-11-08T13:23:01.416Z,16.30
2022-11-08T13:25:37.587Z,17.45
2022-11-08T13:28:41.977Z,18.00
2022-11-08T13:31:28.704Z,17.45
2022-11-08T13:34:12.385Z,19.65
2022-11-08T13:36:51.513Z,18.15
2022-11-08T13:39:33.232Z,17.35
2022-11-08T13:42:04.566Z,21.03
2022-11-08T13:45:14.272Z,17.43
2022-11-08T13:47:54.397Z,19.57
2022-11-08T13:50:47.903Z,18.10
2022-11-08T13:53:45.746Z,19.70
2022-11-08T13:56:27.239Z,18.80
2022-11-08T13:58:55.142Z,21.00
2022-11-08T14:01:52.744Z,22.23
2022-11-08T14:04:31.262Z,30.13
2022-11-08T14:07:06.222Z,25.03
2022-11-08T14:09:44.851Z,26.63
2022-11-08T14:12:17.116Z,24.93
2022-11-08T14:14:52.340Z,27.17
2022-11-08T14:17:38.375Z,36.17
2022-11-08T14:20:34.985Z,32.50
2022-11-08T14:23:15.919Z,26.07
2022-11-08T14:25:48.547Z,21.83
2022-11-08T14:28:24.398Z,21.80
2022-11-08T14:30:52.592Z,27.07
2022-11-08T14:33:22.795Z,32.60
2022-11-08T14:35:59.786Z,21.50
2022-11-08T14:38:28.767Z,22.77
2022-11-08T14:41:00.032Z,20.00
2022-11-08T14:43:28.729Z,21.47
2022-11-08T14:45:58.174Z,18.33
2022-11-08T14:48:29.654Z,30.30
2022-11-08T14:51:06.696Z,23.23
2022-11-08T14:53:45.359Z,24.17
2022-11-08T14:56:18.566Z,21.63
2022-11-08T14:58:47.633Z,20.77
2022-11-08T15:01:17.840Z,21.90
2022-11-08T15:03:49.073Z,19.10
2022-11-08T15:06:18.413Z,21.30
2022-11-08T15:08:52.388Z,21.90
2022-11-08T15:11:31.851Z,24.60
2022-11-08T15:14:03.241Z,27.97
2022-11-08T15:16:41.208Z,27.57
2022-11-08T15:19:21.679Z,21.47
2022-11-08T15:21:53.301Z,23.50
2022-11-08T15:24:30.437Z,24.57
2022-11-08T15:27:06.037Z,31.97
2022-11-08T15:29:49.709Z,34.57
2022-11-08T15:32:19.355Z,30.60
2022-11-08T15:34:48.331Z,42.30
2022-11-08T15:37:30.019Z,41.10
2022-11-08T15:40:02.668Z,45.40
2022-11-08T15:42:31.219Z,40.67
2022-11-08T15:45:01.042Z,35.23
2022-11-08T15:47:46.052Z,46.17
2022-11-08T15:50:17.293Z,43.90
2022-11-08T15:52:48.935Z,39.47
2022-11-08T15:55:19.211Z,36.63
2022-11-08T15:57:49.170Z,32.60
2022-11-08T16:00:19.364Z,32.57
2022-11-08T16:02:47.422Z,35.43
2022-11-08T16:05:17.395Z,31.40
2022-11-08T16:07:47.144Z,44.20
2022-11-08T16:10:17.521Z,44.83
2022-11-08T16:12:47.833Z,49.10
2022-11-08T16:15:18.788Z,47.67
2022-11-08T16:17:46.866Z,49.63
2022-11-08T16:20:21.278Z,32.10
2022-11-08T16:22:50.523Z,55.23
2022-11-08T16:25:18.666Z,68.93
2022-11-08T16:27:51.767Z,69.17
2022-11-08T16:30:19.979Z,62.10
2022-11-08T16:32:47.857Z,60.77
2022-11-08T16:35:16.378Z,41.90
2022-11-08T16:37:45.131Z,46.60
2022-11-08T16:40:22.868Z,50.33
2022-11-08T16:42:52.790Z,51.33
2022-11-08T16:45:43.474Z,63.20
2022-11-08T16:48:16.360Z,65.27
2022-11-08T16:50:44.687Z,49.00
2022-11-08T16:53:16.675Z,53.07
2022-11-08T16:55:46.304Z,47.33
2022-11-08T16:58:14.726Z,49.43
2022-11-08T17:00:44.119Z,55.70
2022-11-08T17:03:17.781Z,42.33
2022-11-08T17:05:45.655Z,47.47
2022-11-08T17:08:13.698Z,48.23
2022-11-08T17:10:41.866Z,36.77
2022-11-08T17:13:14.392Z,33.93
2022-11-08T17:15:42.274Z,32.87
2022-11-08T17:18:12.835Z,36.63
2022-11-08T17:20:40.818Z,29.77
2022-11-08T17:23:09.074Z,30.53
2022-11-08T17:25:38.244Z,26.77
2022-11-08T17:28:07.014Z,24.50
2022-11-08T17:30:37.054Z,26.93
2022-11-08T17:33:05.135Z,23.13
2022-11-08T17:35:32.992Z,23.77
2022-11-08T17:38:00.836Z,24.80
2022-11-08T17:40:28.678Z,23.17
2022-11-08T17:42:56.516Z,21.70
2022-11-08T17:45:24.362Z,21.47
2022-11-08T17:47:53.675Z,20.73
2022-11-08T17:50:21.495Z,23.13
2022-11-08T17:52:49.327Z,20.77
2022-11-08T17:55:17.536Z,21.47
2022-11-08T17:57:45.358Z,25.70
2022-11-08T18:00:14.575Z,22.50
2022-11-08T18:02:42.477Z,25.87
2022-11-08T18:05:11.786Z,25.20
2022-11-08T18:07:40.097Z,23.37
2022-11-08T18:10:09.331Z,23.13
2022-11-08T18:12:37.743Z,25.87
2022-11-08T18:15:07.242Z,23.17
2022-11-08T18:17:35.056Z,22.87
2022-11-08T18:20:02.944Z,23.53
2022-11-08T18:22:32.825Z,23.77
2022-11-08T18:25:00.635Z,22.53
2022-11-08T18:27:28.758Z,25.90
2022-11-08T18:29:56.606Z,22.20
2022-11-08T18:32:24.500Z,23.57
2022-11-08T18:34:52.357Z,26.90
2022-11-08T18:37:20.749Z,25.70
2022-11-08T18:39:49.920Z,26.30
2022-11-08T18:42:17.732Z,28.50
2022-11-08T18:44:45.609Z,29.27
2022-11-08T18:47:13.479Z,33.37
2022-11-08T18:49:41.346Z,29.27
2022-11-08T18:52:09.379Z,33.07
2022-11-08T18:54:37.291Z,46.57
2022-11-08T18:57:06.469Z,45.97
2022-11-08T18:59:34.465Z,49.67
2022-11-08T19:02:03.283Z,44.83
2022-11-08T19:04:31.178Z,50.37
2022-11-08T19:06:59.106Z,55.20
2022-11-08T19:09:26.954Z,65.47
2022-11-08T19:11:54.862Z,58.00
2022-11-08T19:14:24.230Z,55.40
2022-11-08T19:16:55.943Z,50.63
2022-11-08T19:19:24.533Z,53.33
2022-11-08T19:21:52.357Z,48.27
2022-11-08T19:24:20.322Z,44.43
2022-11-08T19:26:48.179Z,48.53
2022-11-08T19:29:16.079Z,45.83
2022-11-08T19:31:45.489Z,44.47
2022-11-08T19:34:13.822Z,46.37
2022-11-08T19:36:43.581Z,59.87
2022-11-08T19:39:12.507Z,57.40
2022-11-08T19:41:41.888Z,59.90
2022-11-08T19:44:10.795Z,67.43
2022-11-08T19:46:40.538Z,71.33
2022-11-08T19:49:11.167Z,66.50
2022-11-08T19:51:39.103Z,63.07
2022-11-08T19:54:08.754Z,63.30
2022-11-08T19:57:03.026Z,51.47
2022-11-08T19:59:25.954Z,52.03
2022-11-08T20:01:54.158Z,48.03
2022-11-08T20:04:23.367Z,45.83
2022-11-08T20:06:51.212Z,48.37
2022-11-08T20:09:19.227Z,53.40
2022-11-08T20:11:47.054Z,58.50
2022-11-08T20:14:15.269Z,91.83
2022-11-08T20:16:47.833Z,70.67
2022-11-08T20:19:18.955Z,59.37
2022-11-08T20:21:48.248Z,58.63
2022-11-08T20:24:16.748Z,64.87
2022-11-08T20:26:45.402Z,70.33
2022-11-08T20:29:14.772Z,64.27
2022-11-08T20:31:42.800Z,62.17
2022-11-08T20:34:12.780Z,62.77
2022-11-08T20:36:41.773Z,62.43
2022-11-08T20:39:12.135Z,60.67
2022-11-08T20:41:41.073Z,56.17
2022-11-08T20:44:10.662Z,69.30
2022-11-08T20:46:39.282Z,69.03
2022-11-08T20:49:07.658Z,72.97
2022-11-08T20:51:36.182Z,63.30
2022-11-08T20:54:04.610Z,71.20
2022-11-08T20:56:37.437Z,67.27
2022-11-08T20:59:05.654Z,67.07
2022-11-08T21:01:34.471Z,66.73
2022-11-08T21:04:02.923Z,63.63
2022-11-08T21:06:35.944Z,77.90
2022-11-08T21:09:30.110Z,85.23
2022-11-08T21:11:54.832Z,79.27
2022-11-08T21:14:23.836Z,78.93
2022-11-08T21:17:21.276Z,81.87
2022-11-08T21:19:39.916Z,83.30
2022-11-08T21:22:16.729Z,72.90
2022-11-08T21:24:47.690Z,67.93
2022-11-08T21:27:17.542Z,71.43
2022-11-08T21:29:45.343Z,68.83
2022-11-08T21:32:13.257Z,66.83
2022-11-08T21:34:45.636Z,59.47
2022-11-08T21:37:14.280Z,60.27
2022-11-08T21:39:42.176Z,68.90
2022-11-08T21:42:10.032Z,71.00
2022-11-08T21:44:39.279Z,75.70
2022-11-08T21:47:07.136Z,77.73
2022-11-08T21:49:35.006Z,69.63
2022-11-08T21:52:03.683Z,81.67
2022-11-08T21:54:31.593Z,81.60
2022-11-08T21:56:59.439Z,71.83
2022-11-08T21:59:27.427Z,72.03
2022-11-08T22:01:56.678Z,79.73
2022-11-08T22:04:24.537Z,83.23
2022-11-08T22:06:52.484Z,76.97
2022-11-08T22:09:20.479Z,84.90
2022-11-08T22:11:48.352Z,76.57
2022-11-08T22:14:16.321Z,75.87
2022-11-08T22:16:44.176Z,78.37
2022-11-08T22:19:13.926Z,89.27
2022-11-08T22:21:44.488Z,88.63
2022-11-08T22:24:13.857Z,84.80
2022-11-08T22:26:42.568Z,86.57
2022-11-08T22:29:10.516Z,87.57
2022-11-08T22:31:39.102Z,83.77
2022-11-08T22:34:08.574Z,90.33
2022-11-08T22:36:44.480Z,84.53
2022-11-08T22:39:13.945Z,86.23
2022-11-08T22:41:41.968Z,79.47
2022-11-08T22:44:12.455Z,74.57
2022-11-08T22:46:41.420Z,81.63
2022-11-08T22:49:09.639Z,77.60
2022-11-08T22:51:39.469Z,79.90
2022-11-08T22:54:08.104Z,80.97
2022-11-08T22:56:36.923Z,75.63
2022-11-08T22:59:05.207Z,76.73
2022-11-08T23:01:33.174Z,74.17
2022-11-08T23:04:01.199Z,70.20
2022-11-08T23:06:29.141Z,69.47
2022-11-08T23:08:58.591Z,69.90
2022-11-08T23:11:43.736Z,65.23
2022-11-08T23:14:35.453Z,70.70
2022-11-08T23:17:05.120Z,67.77
2022-11-08T23:19:50.931Z,68.23
2022-11-08T23:22:36.934Z,69.23
2022-11-08T23:25:07.249Z,71.17
2022-11-08T23:27:52.588Z,70.23
2022-11-08T23:30:38.058Z,69.90
2022-11-08T23:33:06.805Z,69.03
2022-11-08T23:35:34.985Z,71.87
2022-11-08T23:38:03.002Z,68.27
2022-11-08T23:40:49.763Z,71.43
2022-11-08T23:43:36.605Z,70.87
2022-11-08T23:46:08.841Z,70.00
2022-11-08T23:48:37.398Z,69.60
2022-11-08T23:51:06.008Z,69.63
2022-11-08T23:53:36.739Z,66.17
2022-11-08T23:56:07.355Z,67.77
2022-11-08T23:58:35.474Z,65.67
